createdAt,value
2018-08-19T00:02:21.666Z,79.70
2018-08-19T00:05:05.782Z,79.00
2018-08-19T00:07:35.329Z,79.20
2018-08-19T00:10:05.267Z,79.50
2018-08-19T00:12:40.857Z,79.00
2018-08-19T00:15:10.217Z,78.50
2018-08-19T00:17:39.966Z,78.60
2018-08-19T00:20:12.183Z,78.90
2018-08-19T00:22:42.099Z,78.60
2018-08-19T00:25:16.177Z,79.10
2018-08-19T00:27:45.662Z,78.70
2018-08-19T00:30:15.001Z,78.90
2018-08-19T00:32:44.688Z,77.80
2018-08-19T00:35:13.986Z,79.20
2018-08-19T00:37:43.479Z,78.70
2018-08-19T00:40:12.885Z,79.00
2018-08-19T00:42:43.867Z,79.00
2018-08-19T00:45:13.665Z,77.80
2018-08-19T00:47:42.995Z,79.00
2018-08-19T00:50:12.297Z,79.60
2018-08-19T00:52:41.719Z,79.30
2018-08-19T00:55:11.200Z,79.00
2018-08-19T00:57:43.160Z,79.90
2018-08-19T01:00:12.394Z,79.70
2018-08-19T01:02:41.676Z,79.50
2018-08-19T01:05:11.083Z,79.50
2018-08-19T01:07:40.460Z,79.60
2018-08-19T01:10:09.936Z,79.70
2018-08-19T01:12:39.278Z,79.90
2018-08-19T01:15:12.187Z,80.40
2018-08-19T01:17:41.977Z,79.80
2018-08-19T01:20:12.792Z,79.70
2018-08-19T01:22:43.344Z,80.10
2018-08-19T01:25:14.302Z,80.00
2018-08-19T01:27:43.633Z,80.80
2018-08-19T01:30:16.112Z,80.10
2018-08-19T01:32:45.498Z,79.40
2018-08-19T01:35:15.112Z,79.20
2018-08-19T01:37:44.469Z,79.00
2018-08-19T01:40:17.531Z,79.10
2018-08-19T01:42:47.594Z,79.10
2018-08-19T01:45:16.886Z,79.50
2018-08-19T01:47:46.238Z,78.70
2018-08-19T01:50:16.815Z,79.10
2018-08-19T01:52:48.676Z,79.70
2018-08-19T01:55:18.228Z,79.30
2018-08-19T01:57:48.601Z,79.50
2018-08-19T02:00:18.638Z,79.90
2018-08-19T02:03:01.529Z,79.50
2018-08-19T02:05:30.801Z,79.60
2018-08-19T02:08:02.410Z,80.00
2018-08-19T02:10:32.896Z,79.30
2018-08-19T02:13:02.566Z,79.20
2018-08-19T02:15:32.739Z,79.20
2018-08-19T02:18:03.345Z,79.20
2018-08-19T02:20:34.768Z,79.20
2018-08-19T02:23:06.307Z,79.40
2018-08-19T02:25:40.482Z,79.10
2018-08-19T02:28:10.651Z,79.10
2018-08-19T02:31:03.374Z,78.60
2018-08-19T02:33:34.803Z,78.40
2018-08-19T02:36:06.697Z,78.00
2018-08-19T02:38:37.121Z,77.10
2018-08-19T02:41:06.930Z,76.30
2018-08-19T02:43:46.432Z,75.60
2018-08-19T02:46:15.855Z,75.50
2018-08-19T02:48:48.062Z,75.20
2018-08-19T02:51:20.583Z,75.20
2018-08-19T02:53:51.023Z,76.70
2018-08-19T02:56:20.948Z,75.20
2018-08-19T02:58:50.208Z,76.00
2018-08-19T03:01:19.697Z,75.70
2018-08-19T03:03:49.056Z,76.20
2018-08-19T03:06:18.502Z,75.80
2018-08-19T03:08:52.951Z,74.90
2018-08-19T03:11:22.639Z,76.00
2018-08-19T03:13:51.887Z,75.90
2018-08-19T03:16:21.234Z,75.50
2018-08-19T03:18:52.831Z,76.10
2018-08-19T03:21:23.119Z,77.20
2018-08-19T03:23:53.779Z,75.90
2018-08-19T03:26:23.096Z,76.90
2018-08-19T03:28:52.383Z,75.70
2018-08-19T03:31:24.759Z,76.20
2018-08-19T03:33:54.104Z,76.30
2018-08-19T03:36:23.428Z,76.00
2018-08-19T03:38:53.922Z,77.00
2018-08-19T03:41:23.227Z,76.40
2018-08-19T03:43:58.383Z,76.30
2018-08-19T03:46:29.172Z,75.30
2018-08-19T03:48:58.476Z,76.00
2018-08-19T03:51:27.758Z,75.60
2018-08-19T03:53:57.093Z,75.20
2018-08-19T03:56:26.344Z,74.70
2018-08-19T03:58:59.835Z,74.30
2018-08-19T04:01:41.918Z,74.30
2018-08-19T04:04:12.716Z,73.80
2018-08-19T04:06:42.111Z,74.20
2018-08-19T04:09:11.346Z,72.40
2018-08-19T04:11:40.868Z,73.50
2018-08-19T04:14:26.604Z,72.60
2018-08-19T04:16:58.297Z,73.00
2018-08-19T04:19:28.186Z,72.90
2018-08-19T04:22:00.977Z,73.10
2018-08-19T04:24:30.992Z,71.70
2018-08-19T04:27:04.116Z,72.50
2018-08-19T04:29:34.423Z,72.40
2018-08-19T04:32:04.808Z,73.00
2018-08-19T04:34:34.144Z,71.70
2018-08-19T04:37:03.425Z,71.70
2018-08-19T04:39:32.703Z,71.70
2018-08-19T04:42:02.044Z,70.30
2018-08-19T04:44:31.346Z,70.30
2018-08-19T04:47:01.251Z,70.30
2018-08-19T04:49:30.515Z,71.60
2018-08-19T04:52:00.917Z,70.20
2018-08-19T04:54:30.356Z,69.70
2018-08-19T04:56:59.642Z,69.40
2018-08-19T04:59:28.947Z,70.70
2018-08-19T05:01:58.228Z,70.50
2018-08-19T05:04:27.532Z,70.50
2018-08-19T05:06:56.852Z,70.80
2018-08-19T05:09:26.171Z,72.00
2018-08-19T05:11:55.579Z,71.10
2018-08-19T05:14:24.822Z,72.00
2018-08-19T05:16:54.057Z,72.00
2018-08-19T05:19:23.370Z,71.70
2018-08-19T05:21:54.554Z,72.50
2018-08-19T05:24:23.874Z,72.00
2018-08-19T05:26:57.541Z,71.80
2018-08-19T05:29:26.856Z,72.60
2018-08-19T05:31:58.746Z,73.00
2018-08-19T05:34:37.602Z,72.90
2018-08-19T05:37:06.927Z,73.20
2018-08-19T05:39:36.488Z,72.30
2018-08-19T05:42:11.339Z,73.10
2018-08-19T05:44:41.387Z,72.60
2018-08-19T05:47:13.681Z,72.60
2018-08-19T05:49:44.122Z,72.60
2018-08-19T05:52:20.505Z,72.70
2018-08-19T05:54:53.855Z,74.30
2018-08-19T05:57:23.253Z,74.10
2018-08-19T05:59:53.742Z,72.70
2018-08-19T06:02:30.954Z,73.80
2018-08-19T06:05:00.924Z,73.10
2018-08-19T06:07:30.451Z,72.60
2018-08-19T06:09:59.874Z,73.40
2018-08-19T06:12:29.165Z,73.10
2018-08-19T06:15:00.601Z,73.60
2018-08-19T06:17:29.904Z,72.90
2018-08-19T06:19:59.267Z,73.20
2018-08-19T06:22:42.922Z,73.20
2018-08-19T06:25:15.720Z,73.30
2018-08-19T06:27:47.621Z,73.40
2018-08-19T06:30:17.915Z,72.90
2018-08-19T06:32:48.328Z,72.80
2018-08-19T06:35:18.180Z,73.60
2018-08-19T06:37:48.617Z,73.30
2018-08-19T06:40:22.059Z,73.30
2018-08-19T06:42:51.545Z,73.50
2018-08-19T06:45:21.090Z,73.60
2018-08-19T06:47:51.459Z,73.70
2018-08-19T06:50:29.811Z,72.80
2018-08-19T06:52:59.958Z,72.30
2018-08-19T06:55:29.659Z,73.00
2018-08-19T06:58:00.146Z,72.60
2018-08-19T07:00:31.574Z,73.00
2018-08-19T07:03:04.411Z,73.00
2018-08-19T07:05:34.431Z,71.70
2018-08-19T07:08:03.831Z,71.50
2018-08-19T07:10:38.560Z,72.10
2018-08-19T07:13:16.376Z,72.10
2018-08-19T07:15:45.737Z,72.00
2018-08-19T07:18:16.259Z,71.70
2018-08-19T07:20:45.968Z,71.70
2018-08-19T07:23:15.291Z,72.00
2018-08-19T07:25:45.517Z,72.10
2018-08-19T07:28:16.644Z,70.70
2018-08-19T07:30:46.004Z,70.50
2018-08-19T07:33:15.618Z,70.80
2018-08-19T07:35:44.907Z,70.10
2018-08-19T07:38:14.303Z,70.10
2018-08-19T07:40:43.599Z,70.00
2018-08-19T07:43:12.903Z,68.60
2018-08-19T07:45:42.226Z,70.30
2018-08-19T07:48:11.572Z,69.30
2018-08-19T07:50:41.167Z,67.90
2018-08-19T07:53:10.461Z,67.40
2018-08-19T07:55:39.805Z,67.30
2018-08-19T07:58:09.344Z,66.90
2018-08-19T08:00:40.179Z,66.40
2018-08-19T08:03:09.887Z,65.80
2018-08-19T08:05:44.323Z,65.90
2018-08-19T08:08:13.604Z,65.20
2018-08-19T08:10:43.028Z,65.30
2018-08-19T08:13:13.453Z,64.90
2018-08-19T08:16:00.374Z,65.90
2018-08-19T08:18:29.835Z,66.30
2018-08-19T08:21:04.238Z,63.70
2018-08-19T08:23:33.588Z,66.70
2018-08-19T08:26:02.946Z,66.00
2018-08-19T08:28:32.279Z,66.40
2018-08-19T08:31:01.829Z,66.10
2018-08-19T08:33:31.255Z,66.40
2018-08-19T08:36:00.510Z,66.90
2018-08-19T08:38:29.907Z,66.10
2018-08-19T08:40:59.364Z,65.40
2018-08-19T08:43:28.645Z,66.50
2018-08-19T08:45:59.231Z,64.10
2018-08-19T08:48:34.147Z,64.50
2018-08-19T08:51:03.864Z,66.60
2018-08-19T08:53:43.696Z,66.70
2018-08-19T08:56:13.319Z,65.60
2018-08-19T08:58:43.087Z,65.70
2018-08-19T09:01:12.480Z,64.30
2018-08-19T09:03:41.793Z,65.00
2018-08-19T09:06:18.098Z,65.80
2018-08-19T09:08:47.525Z,69.40
2018-08-19T09:11:18.285Z,69.50
2018-08-19T09:13:47.737Z,68.80
2018-08-19T09:16:17.092Z,67.90
2018-08-19T09:18:46.396Z,72.30
2018-08-19T09:21:16.188Z,70.90
2018-08-19T09:23:45.570Z,69.70
2018-08-19T09:26:15.198Z,70.80
2018-08-19T09:28:44.678Z,69.10
2018-08-19T09:31:14.011Z,67.50
2018-08-19T09:33:43.330Z,68.10
2018-08-19T09:36:12.771Z,67.10
2018-08-19T09:38:42.143Z,67.10
2018-08-19T09:41:11.482Z,65.60
2018-08-19T09:43:41.762Z,67.20
2018-08-19T09:46:11.070Z,65.20
2018-08-19T09:48:40.374Z,66.10
2018-08-19T09:51:13.787Z,65.10
2018-08-19T09:53:43.138Z,65.60
2018-08-19T09:56:12.673Z,64.70
2018-08-19T09:58:46.067Z,62.40
2018-08-19T10:01:19.558Z,63.80
2018-08-19T10:03:48.803Z,62.20
2018-08-19T10:06:18.192Z,62.50
2018-08-19T10:08:47.483Z,63.10
2018-08-19T10:11:16.865Z,61.20
2018-08-19T10:13:48.376Z,62.70
2018-08-19T10:16:17.908Z,60.70
2018-08-19T10:18:47.160Z,60.40
2018-08-19T10:21:18.766Z,59.50
2018-08-19T10:23:48.050Z,61.60
2018-08-19T10:26:17.863Z,61.80
2018-08-19T10:28:47.718Z,61.30
2018-08-19T10:31:18.449Z,60.40
2018-08-19T10:33:50.984Z,60.80
2018-08-19T10:36:20.444Z,61.70
2018-08-19T10:38:49.739Z,60.10
2018-08-19T10:41:19.545Z,59.80
2018-08-19T10:43:48.771Z,60.60
2018-08-19T10:46:18.091Z,60.90
2018-08-19T10:48:47.425Z,59.10
2018-08-19T10:51:16.708Z,58.70
2018-08-19T10:53:46.122Z,59.90
2018-08-19T10:56:15.477Z,58.60
2018-08-19T10:58:49.761Z,59.90
2018-08-19T11:01:19.996Z,59.40
2018-08-19T11:03:49.732Z,59.60
2018-08-19T11:06:19.107Z,58.80
2018-08-19T11:08:55.800Z,60.40
2018-08-19T11:11:25.859Z,60.00
2018-08-19T11:13:55.116Z,59.40
2018-08-19T11:16:24.536Z,58.90
2018-08-19T11:18:54.928Z,59.10
2018-08-19T11:21:29.831Z,58.70
2018-08-19T11:23:59.991Z,60.20
2018-08-19T11:26:29.503Z,59.70
2018-08-19T11:28:59.872Z,58.00
2018-08-19T11:31:34.752Z,58.00
2018-08-19T11:34:07.303Z,58.40
2018-08-19T11:36:42.303Z,58.00
2018-08-19T11:39:13.651Z,57.80
2018-08-19T11:41:43.026Z,57.30
2018-08-19T11:44:14.773Z,57.50
2018-08-19T11:46:44.170Z,58.50
2018-08-19T11:49:15.986Z,56.80
2018-08-19T11:51:50.304Z,56.40
2018-08-19T11:54:20.546Z,55.90
2018-08-19T11:56:57.062Z,57.10
2018-08-19T11:59:33.566Z,55.50
2018-08-19T12:02:03.003Z,56.20
2018-08-19T12:04:32.289Z,56.00
2018-08-19T12:07:01.930Z,55.80
2018-08-19T12:09:31.340Z,56.50
2018-08-19T12:12:00.770Z,55.90
2018-08-19T12:14:33.050Z,56.90
2018-08-19T12:17:03.233Z,56.90
2018-08-19T12:19:33.419Z,56.90
2018-08-19T12:22:04.808Z,57.00
2018-08-19T12:24:37.974Z,56.40
2018-08-19T12:27:09.274Z,55.90
2018-08-19T12:29:39.773Z,56.70
2018-08-19T12:32:26.708Z,56.80
2018-08-19T12:34:58.480Z,57.20
2018-08-19T12:37:29.084Z,56.90
2018-08-19T12:39:59.105Z,56.90
2018-08-19T12:42:29.220Z,56.30
2018-08-19T12:45:02.720Z,57.70
2018-08-19T12:47:32.428Z,58.30
2018-08-19T12:50:03.847Z,57.70
2018-08-19T12:52:34.388Z,58.30
2018-08-19T12:55:07.779Z,57.30
2018-08-19T12:57:38.197Z,58.00
2018-08-19T13:00:19.629Z,58.10
2018-08-19T13:02:50.747Z,58.40
2018-08-19T13:05:20.876Z,58.40
2018-08-19T13:07:50.390Z,58.90
2018-08-19T13:10:19.827Z,58.80
2018-08-19T13:12:56.363Z,58.20
2018-08-19T13:15:28.093Z,58.60
2018-08-19T13:17:57.601Z,58.30
2018-08-19T13:20:27.190Z,57.80
2018-08-19T13:23:02.824Z,58.40
2018-08-19T13:25:32.435Z,59.10
2018-08-19T13:28:01.820Z,59.20
2018-08-19T13:30:31.158Z,59.10
2018-08-19T13:33:00.643Z,59.60
2018-08-19T13:35:30.010Z,58.90
2018-08-19T13:37:59.367Z,58.90
2018-08-19T13:40:28.735Z,58.40
2018-08-19T13:42:57.988Z,59.00
2018-08-19T13:45:28.540Z,59.50
2018-08-19T13:47:57.880Z,58.80
2018-08-19T13:50:27.337Z,58.90
2018-08-19T13:52:57.648Z,59.70
2018-08-19T13:55:27.478Z,59.50
2018-08-19T13:57:56.791Z,59.70
2018-08-19T14:00:30.220Z,59.30
2018-08-19T14:02:59.496Z,60.30
2018-08-19T14:05:29.074Z,60.30
2018-08-19T14:07:58.379Z,60.30
2018-08-19T14:10:27.668Z,60.60
2018-08-19T14:12:56.937Z,61.40
2018-08-19T14:15:26.332Z,61.30
2018-08-19T14:17:55.624Z,61.30
2018-08-19T14:20:24.950Z,62.10
2018-08-19T14:22:54.259Z,62.10
2018-08-19T14:25:23.533Z,61.50
2018-08-19T14:27:52.839Z,62.40
2018-08-19T14:30:22.230Z,62.00
2018-08-19T14:32:51.592Z,62.40
2018-08-19T14:35:20.982Z,63.00
2018-08-19T14:37:50.244Z,63.20
2018-08-19T14:40:19.872Z,63.30
2018-08-19T14:42:49.056Z,63.90
2018-08-19T14:45:18.472Z,63.90
2018-08-19T14:47:47.785Z,63.70
2018-08-19T14:50:19.178Z,64.40
2018-08-19T14:52:48.695Z,63.70
2018-08-19T14:55:18.115Z,63.90
2018-08-19T14:57:47.462Z,63.90
2018-08-19T15:00:17.935Z,64.00
2018-08-19T15:02:47.198Z,63.90
2018-08-19T15:05:20.132Z,64.10
2018-08-19T15:07:49.840Z,64.80
2018-08-19T15:10:21.938Z,64.50
2018-08-19T15:12:51.286Z,64.70
2018-08-19T15:15:20.563Z,64.70
2018-08-19T15:17:57.026Z,64.70
2018-08-19T15:20:33.989Z,64.40
2018-08-19T15:23:14.524Z,63.70
2018-08-19T15:25:44.128Z,63.90
2018-08-19T15:28:13.467Z,63.30
2018-08-19T15:30:43.163Z,63.40
2018-08-19T15:33:13.534Z,63.50
2018-08-19T15:35:43.491Z,64.00
2018-08-19T15:38:13.072Z,63.50
2018-08-19T15:40:47.467Z,63.80
2018-08-19T15:43:16.833Z,64.00
2018-08-19T15:45:46.627Z,63.80
2018-08-19T15:48:16.007Z,63.70
2018-08-19T15:50:45.371Z,63.80
2018-08-19T15:53:14.829Z,63.30
2018-08-19T15:55:44.140Z,63.90
2018-08-19T15:58:13.423Z,63.90
2018-08-19T16:00:42.887Z,63.30
2018-08-19T16:03:13.155Z,63.80
2018-08-19T16:05:42.421Z,63.50
2018-08-19T16:08:11.725Z,63.90
2018-08-19T16:10:41.287Z,63.90
2018-08-19T16:13:11.911Z,63.90
2018-08-19T16:15:41.278Z,63.90
2018-08-19T16:18:10.657Z,63.70
2018-08-19T16:20:40.100Z,63.90
2018-08-19T16:23:09.474Z,63.60
2018-08-19T16:25:38.825Z,64.00
2018-08-19T16:28:08.134Z,64.60
2018-08-19T16:30:37.407Z,64.70
2018-08-19T16:33:06.718Z,65.10
2018-08-19T16:35:36.119Z,65.30
2018-08-19T16:38:05.771Z,64.80
2018-08-19T16:40:35.116Z,64.20
2018-08-19T16:43:04.517Z,64.50
2018-08-19T16:45:33.842Z,64.60
2018-08-19T16:48:03.143Z,65.50
2018-08-19T16:50:32.582Z,64.40
2018-08-19T16:53:01.782Z,64.30
2018-08-19T16:55:42.070Z,64.60
2018-08-19T16:58:11.369Z,65.20
2018-08-19T17:00:40.607Z,64.90
2018-08-19T17:03:25.659Z,65.70
2018-08-19T17:05:55.838Z,65.20
2018-08-19T17:08:25.131Z,65.10
2018-08-19T17:10:54.458Z,65.10
2018-08-19T17:13:23.699Z,65.70
2018-08-19T17:15:53.020Z,65.00
2018-08-19T17:18:22.307Z,65.80
2018-08-19T17:20:52.531Z,66.10
2018-08-19T17:23:23.152Z,66.00
2018-08-19T17:25:52.677Z,66.20
2018-08-19T17:28:25.295Z,65.30
2018-08-19T17:30:55.595Z,66.50
2018-08-19T17:33:27.110Z,66.70
2018-08-19T17:35:56.471Z,66.10
2018-08-19T17:38:29.440Z,66.00
2018-08-19T17:40:58.832Z,66.20
2018-08-19T17:43:33.117Z,66.20
2018-08-19T17:46:10.117Z,66.90
2018-08-19T17:48:40.488Z,66.80
2018-08-19T17:51:21.697Z,66.60
2018-08-19T17:53:51.032Z,66.30
2018-08-19T17:56:20.882Z,66.50
2018-08-19T17:58:52.164Z,67.30
2018-08-19T18:01:21.791Z,67.40
2018-08-19T18:03:51.066Z,67.10
2018-08-19T18:06:20.434Z,66.70
2018-08-19T18:08:51.766Z,67.30
2018-08-19T18:11:21.507Z,67.70
2018-08-19T18:13:50.917Z,67.80
2018-08-19T18:16:20.260Z,67.50
2018-08-19T18:18:49.640Z,67.60
2018-08-19T18:21:19.159Z,67.80
2018-08-19T18:23:49.515Z,67.70
2018-08-19T18:26:19.895Z,67.80
2018-08-19T18:28:49.477Z,67.20
2018-08-19T18:31:21.967Z,67.40
2018-08-19T18:33:59.669Z,67.30
2018-08-19T18:36:31.378Z,67.80
2018-08-19T18:39:01.227Z,67.70
2018-08-19T18:41:36.843Z,67.60
2018-08-19T18:44:08.304Z,68.40
2018-08-19T18:46:37.832Z,69.00
2018-08-19T18:49:11.129Z,70.50
2018-08-19T18:51:41.591Z,69.80
2018-08-19T18:54:17.578Z,69.60
2018-08-19T18:56:47.065Z,69.80
2018-08-19T18:59:19.577Z,69.90
2018-08-19T19:01:48.915Z,70.40
2018-08-19T19:04:18.354Z,70.30
2018-08-19T19:06:47.754Z,70.40
2018-08-19T19:09:17.238Z,70.80
2018-08-19T19:11:47.793Z,70.40
2018-08-19T19:14:19.533Z,70.20
2018-08-19T19:16:54.538Z,70.30
2018-08-19T19:19:24.056Z,70.50
2018-08-19T19:21:59.334Z,71.40
2018-08-19T19:24:33.902Z,71.10
2018-08-19T19:27:03.252Z,71.40
2018-08-19T19:29:33.029Z,72.00
2018-08-19T19:32:11.956Z,71.50
2018-08-19T19:34:41.996Z,71.70
2018-08-19T19:37:11.432Z,72.00
2018-08-19T19:39:40.868Z,72.20
2018-08-19T19:42:11.325Z,72.20
2018-08-19T19:44:40.828Z,72.60
2018-08-19T19:47:10.827Z,72.90
2018-08-19T19:49:46.808Z,72.90
2018-08-19T19:52:16.032Z,73.00
2018-08-19T19:54:45.314Z,72.80
2018-08-19T19:57:14.667Z,73.00
2018-08-19T19:59:44.527Z,73.10
2018-08-19T20:02:29.167Z,73.30
2018-08-19T20:04:58.514Z,73.40
2018-08-19T20:07:28.317Z,73.50
2018-08-19T20:09:57.679Z,73.80
2018-08-19T20:12:28.369Z,73.90
2018-08-19T20:15:00.323Z,74.00
2018-08-19T20:17:29.707Z,74.10
2018-08-19T20:19:59.015Z,74.30
2018-08-19T20:22:28.357Z,74.30
2018-08-19T20:24:57.646Z,74.30
2018-08-19T20:27:26.876Z,74.60
2018-08-19T20:29:56.352Z,75.10
2018-08-19T20:32:25.650Z,75.10
2018-08-19T20:34:54.965Z,75.30
2018-08-19T20:37:25.985Z,75.50
2018-08-19T20:39:55.899Z,76.00
2018-08-19T20:42:25.336Z,76.20
2018-08-19T20:44:54.762Z,76.20
2018-08-19T20:47:24.013Z,76.60
2018-08-19T20:49:53.435Z,76.50
2018-08-19T20:52:32.719Z,76.90
2018-08-19T20:55:02.007Z,77.00
2018-08-19T20:57:31.318Z,76.90
2018-08-19T21:00:00.606Z,77.40
2018-08-19T21:02:29.939Z,77.50
2018-08-19T21:04:59.398Z,76.90
2018-08-19T21:07:28.719Z,77.50
2018-08-19T21:09:58.003Z,77.40
2018-08-19T21:12:27.355Z,77.40
2018-08-19T21:14:56.637Z,77.80
2018-08-19T21:17:39.067Z,77.60
2018-08-19T21:20:08.824Z,77.80
2018-08-19T21:22:38.312Z,78.00
2018-08-19T21:25:07.646Z,77.90
2018-08-19T21:27:39.185Z,77.30
2018-08-19T21:30:08.794Z,77.40
2018-08-19T21:32:38.138Z,77.50
2018-08-19T21:35:09.133Z,77.50
2018-08-19T21:37:38.997Z,78.00
2018-08-19T21:40:09.114Z,77.60
2018-08-19T21:42:49.177Z,77.20
2018-08-19T21:45:20.259Z,78.00
2018-08-19T21:47:49.612Z,77.70
2018-08-19T21:50:18.878Z,78.20
2018-08-19T21:53:02.601Z,78.60
2018-08-19T21:55:52.078Z,78.30
2018-08-19T21:58:21.752Z,77.90
2018-08-19T22:00:58.919Z,78.30
2018-08-19T22:03:33.524Z,78.00
2018-08-19T22:06:09.906Z,78.50
2018-08-19T22:08:39.758Z,78.00
2018-08-19T22:11:09.195Z,78.00
2018-08-19T22:13:38.573Z,78.20
2018-08-19T22:16:08.239Z,77.60
2018-08-19T22:18:37.783Z,78.40
2018-08-19T22:21:16.407Z,77.80
2018-08-19T22:23:47.046Z,77.90
2018-08-19T22:26:19.300Z,77.90
2018-08-19T22:29:02.345Z,78.60
2018-08-19T22:31:31.655Z,78.40
2018-08-19T22:34:00.990Z,78.90
2018-08-19T22:36:30.386Z,78.50
2018-08-19T22:39:00.007Z,78.60
2018-08-19T22:41:31.004Z,78.70
2018-08-19T22:44:00.379Z,78.70
2018-08-19T22:46:29.950Z,78.80
2018-08-19T22:48:59.627Z,79.20
2018-08-19T22:51:32.479Z,79.60
2018-08-19T22:54:01.871Z,79.60
2018-08-19T22:56:31.114Z,79.20
2018-08-19T22:59:00.366Z,79.10
2018-08-19T23:01:35.033Z,79.60
2018-08-19T23:04:04.791Z,79.00
2018-08-19T23:06:34.430Z,79.70
2018-08-19T23:09:05.102Z,79.80
2018-08-19T23:11:39.426Z,79.80
2018-08-19T23:14:19.454Z,80.20
2018-08-19T23:16:48.721Z,80.40
2018-08-19T23:19:20.598Z,79.60
2018-08-19T23:21:50.144Z,79.90
2018-08-19T23:24:19.413Z,79.30
2018-08-19T23:26:48.664Z,79.40
2018-08-19T23:29:17.923Z,80.20
2018-08-19T23:31:47.192Z,80.00
2018-08-19T23:34:16.452Z,80.30
2018-08-19T23:36:45.780Z,80.50
2018-08-19T23:39:15.105Z,80.00
2018-08-19T23:41:44.408Z,79.60
2018-08-19T23:44:13.725Z,80.00
2018-08-19T23:46:42.996Z,80.50
2018-08-19T23:49:12.307Z,79.70
2018-08-19T23:51:41.645Z,80.10
2018-08-19T23:54:11.031Z,79.80
2018-08-19T23:56:40.321Z,79.90
2018-08-19T23:59:09.579Z,79.90
